Alpine Haven, Vermont
Current Conditions -  °F | °C
As of 1:15 AM on Saturday 25 Oct 2014 (Local Time) from KEFK Reporting Station
Clear Clear  
Wind Chill: 36°   Ceiling: Unl
Heat Index: 36°   Visibility: 10mi
Dew Point: 34°   Wind: 3mph
Humidity: 94%   Direction: 200°SSW
Pressure: 29.78"   Gusts: NA
Location:  44.8557°N, 72.6016°W
Report Text: KEFK 250515Z AUTO 20003KT 10SM CLR 02/01 A2978 RMK AO2 T00200012
Loading
Personal Weather Stations






























Interactive Weather Map
Tropical Storm Tracking
New forecast layout! Learn more

10-Day Weather Forecast

Advertisements
Track Severe Weather on mobile